Terminal Aerodrome Forecast
Issued by NWS

Home | Current Version | Previous Version | Text Only | Print | Product List | Glossary Off
Versions: 1 2 3 4 5 6 7 8 9 10 11 12 13 14 15 16 17

000
FTUS43 KICT 220202 AAA
TAFSLN
TAF AMD
KSLN 220202Z 2202/2224 23007KT P6SM VCSH BKN090
     FM220330 05018G25KT P6SM SCT100 BKN150
     FM220700 08011KT P6SM SCT200=

USA.gov is the U.S. government's official web portal to all federal, state and local government web resources and services.